Lansdale, PA (19446)

7:28 PM EDT on July 26, 2016 (GMT -0400)
North Wales, Pa | | Change Station

Elev 374 ft 40.22 °N, 75.28 °W | Updated 9 seconds ago

Clear
Clear
87.1 °F
Feels Like 89 °F
N
0.0
Wind Variable Wind from NW
Gusts 4.0 mph

Today
High -- | Low -- °F
--% Chance of Precip.
Yesterday
High -- | Low -- °F
Precip. -- in
Pressure 29.89 in
Visibility 10.0 miles
Clouds Clear
Heat Index 89 °F
Dew Point 65 °F
Humidity 49%
Rainfall 0.00 in
Snow Depth Not available.
5:53 AM 8:20 PM
Waning Gibbous, 50% visible
METAR KLOM 262315Z AUTO 00000KT 10SM CLR 30/18 A2989 RMK AO1
Pressure 29.89 in
Visibility 10.0 miles
Clouds Clear
Heat Index 89 °F
Dew Point 65 °F
Humidity 49%
Rainfall 0.00 in
Snow Depth Not available.
5:53 AM 8:20 PM
Waning Gibbous, 50% visible
METAR KLOM 262315Z AUTO 00000KT 10SM CLR 30/18 A2989 RMK AO1

10-Day Weather Forecast

Almanac

Astronomy

Jul. 26, 2016 Rise Set
Actual Time
Civil Twilight
Nautical Twilight
Astronomical Twilight
Moon
Length of Visible Light
Length of Day
Tomorrow will be .
, % of the Moon is Illuminated

Today's Extremes

State Highs State Lows

Community

WunderPhotos

Upload Photos

1,927,729 photos uploaded!

WunderBlog® & News

Nearby

Air Quality

  Air Quality AQ Index Pollutant
Not available.

Snow Depth

Station Depth Elevation

Earthquake Activity

City Distance Mag. Time & Date
Minimum magnitude displayed is 2.5.

Coastal Water Temperatures

Place Temperature

Stations

Nearby Weather Stations

Station Location Temp. Windchill Dew Point Humidity Wind Precip. Elev Updated Type
                   

Watches & Warnings

There are currently no watches in effect.